createdAt,value
2023-03-17T00:02:27.470Z,95.10
2023-03-17T00:04:57.553Z,95.10
2023-03-17T00:07:27.136Z,95.10
2023-03-17T00:09:57.260Z,95.10
2023-03-17T00:12:26.669Z,95.00
2023-03-17T00:14:55.995Z,94.80
2023-03-17T00:17:26.264Z,94.80
2023-03-17T00:19:55.566Z,94.60
2023-03-17T00:22:24.930Z,94.50
2023-03-17T00:24:54.743Z,94.50
2023-03-17T00:27:30.012Z,94.30
2023-03-17T00:30:01.492Z,94.00
2023-03-17T00:32:30.840Z,94.10
2023-03-17T00:35:00.559Z,94.30
2023-03-17T00:37:32.200Z,94.00
2023-03-17T00:40:02.456Z,94.20
2023-03-17T00:42:32.617Z,94.10
2023-03-17T00:45:02.404Z,93.70
2023-03-17T00:47:36.646Z,93.90
2023-03-17T00:50:08.083Z,93.90
2023-03-17T00:52:43.309Z,93.80
2023-03-17T00:55:14.227Z,93.90
2023-03-17T00:57:45.001Z,93.80
2023-03-17T01:00:30.369Z,93.50
2023-03-17T01:03:09.517Z,93.70
2023-03-17T01:05:40.760Z,93.60
2023-03-17T01:08:11.632Z,93.50
2023-03-17T01:10:41.717Z,93.60
2023-03-17T01:13:18.054Z,93.50
2023-03-17T01:15:50.530Z,93.40
2023-03-17T01:18:27.829Z,93.60
2023-03-17T01:21:01.044Z,93.30
2023-03-17T01:23:30.446Z,93.10
2023-03-17T01:26:00.672Z,93.10
2023-03-17T01:28:29.984Z,93.20
2023-03-17T01:30:59.710Z,93.20
2023-03-17T01:33:29.823Z,92.90
2023-03-17T01:35:59.648Z,92.70
2023-03-17T01:38:29.239Z,92.70
2023-03-17T01:40:59.639Z,92.80
2023-03-17T01:43:33.488Z,92.70
2023-03-17T01:46:33.434Z,92.70
2023-03-17T01:49:15.521Z,92.50
2023-03-17T01:52:16.187Z,92.50
2023-03-17T01:55:09.462Z,92.20
2023-03-17T01:58:09.291Z,92.20
2023-03-17T02:00:42.325Z,92.20
2023-03-17T02:03:15.542Z,92.00
2023-03-17T02:05:51.088Z,92.00
2023-03-17T02:08:32.031Z,91.90
2023-03-17T02:11:06.918Z,91.70
2023-03-17T02:13:41.046Z,91.70
2023-03-17T02:16:19.229Z,91.70
2023-03-17T02:18:55.949Z,91.70
2023-03-17T02:21:39.874Z,91.60
2023-03-17T02:24:25.962Z,91.50
2023-03-17T02:27:05.448Z,91.40
2023-03-17T02:29:41.706Z,91.30
2023-03-17T02:32:21.985Z,91.10
2023-03-17T02:34:52.167Z,91.10
2023-03-17T02:37:22.578Z,91.00
2023-03-17T02:39:54.679Z,91.10
2023-03-17T02:42:30.380Z,90.90
2023-03-17T02:45:22.218Z,90.80
2023-03-17T02:53:29.194Z,90.60
2023-03-17T02:58:59.449Z,90.40
2023-03-17T03:01:43.010Z,90.40
2023-03-17T03:04:13.095Z,90.20
2023-03-17T03:06:44.748Z,90.10
2023-03-17T03:09:16.535Z,90.10
2023-03-17T03:11:47.066Z,90.10
2023-03-17T03:14:18.335Z,90.20
2023-03-17T03:16:51.516Z,90.10
2023-03-17T03:19:22.903Z,90.10
2023-03-17T03:24:39.512Z,89.70
2023-03-17T03:27:15.181Z,89.70
2023-03-17T03:29:47.384Z,89.60
2023-03-17T03:32:22.246Z,89.30
2023-03-17T03:34:53.862Z,88.70
2023-03-17T03:37:24.630Z,88.00
2023-03-17T03:39:54.865Z,88.60
2023-03-17T03:42:29.637Z,87.80
2023-03-17T03:45:07.196Z,87.70
2023-03-17T03:47:38.312Z,87.60
2023-03-17T03:50:21.109Z,87.20
2023-03-17T03:52:54.059Z,87.20
2023-03-17T03:55:29.065Z,87.20
2023-03-17T03:58:04.135Z,86.90
2023-03-17T04:00:38.568Z,86.30
2023-03-17T04:06:11.498Z,86.40
2023-03-17T04:11:39.191Z,85.80
2023-03-17T04:14:35.430Z,84.90
2023-03-17T04:20:08.805Z,85.00
2023-03-17T04:22:48.259Z,85.00
2023-03-17T04:25:18.794Z,85.30
2023-03-17T04:27:48.266Z,85.00
2023-03-17T04:30:17.851Z,84.90
2023-03-17T04:32:47.795Z,85.00
2023-03-17T04:35:21.002Z,84.70
2023-03-17T04:38:00.872Z,84.30
2023-03-17T04:40:42.121Z,84.20
2023-03-17T04:43:20.494Z,83.90
2023-03-17T04:48:50.154Z,83.50
2023-03-17T04:51:27.843Z,83.30
2023-03-17T04:54:20.395Z,82.80
2023-03-17T04:56:50.768Z,82.50
2023-03-17T04:59:20.449Z,82.00
2023-03-17T05:01:49.780Z,81.80
2023-03-17T05:04:30.807Z,81.70
2023-03-17T05:12:28.079Z,79.70
2023-03-17T05:15:06.114Z,79.90
2023-03-17T05:20:18.662Z,78.40
2023-03-17T05:22:49.462Z,78.70
2023-03-17T05:25:22.515Z,78.10
2023-03-17T05:27:52.882Z,77.70
2023-03-17T05:30:27.356Z,77.60
2023-03-17T05:33:06.864Z,77.40
2023-03-17T05:35:39.366Z,77.30
2023-03-17T05:40:58.266Z,77.70
2023-03-17T05:43:30.401Z,77.70
2023-03-17T05:46:11.209Z,77.40
2023-03-17T05:51:38.909Z,76.70
2023-03-17T05:54:08.677Z,76.70
2023-03-17T05:56:41.543Z,76.50
2023-03-17T05:59:11.742Z,76.20
2023-03-17T06:01:54.396Z,75.70
2023-03-17T06:04:25.514Z,76.40
2023-03-17T06:06:56.117Z,76.30
2023-03-17T06:09:26.515Z,76.20
2023-03-17T06:11:59.829Z,75.80
2023-03-17T06:14:29.354Z,75.50
2023-03-17T06:17:00.404Z,75.10
2023-03-17T06:19:32.214Z,75.00
2023-03-17T06:22:04.213Z,74.50
2023-03-17T06:24:35.078Z,75.20
2023-03-17T06:27:14.024Z,74.50
2023-03-17T06:29:45.126Z,74.10
2023-03-17T06:34:59.800Z,74.30
2023-03-17T06:37:46.265Z,74.00
2023-03-17T06:40:22.528Z,73.10
2023-03-17T06:45:43.319Z,72.00
2023-03-17T06:48:13.374Z,72.00
2023-03-17T06:50:58.490Z,71.50
2023-03-17T06:53:35.854Z,71.20
2023-03-17T06:56:29.933Z,71.60
2023-03-17T06:59:00.419Z,70.80
2023-03-17T07:01:39.439Z,70.30
2023-03-17T07:04:09.665Z,69.60
2023-03-17T07:06:50.141Z,70.40
2023-03-17T07:09:25.491Z,69.80
2023-03-17T07:11:55.685Z,69.40
2023-03-17T07:20:03.621Z,69.90
2023-03-17T07:22:34.065Z,69.30
2023-03-17T07:28:02.605Z,71.10
2023-03-17T07:30:32.044Z,71.70
2023-03-17T07:33:06.964Z,72.30
2023-03-17T07:35:40.047Z,72.40
2023-03-17T07:38:09.416Z,72.80
2023-03-17T07:40:39.861Z,72.90
2023-03-17T07:43:09.518Z,72.90
2023-03-17T07:45:57.568Z,73.10
2023-03-17T07:48:36.488Z,72.70
2023-03-17T07:56:39.493Z,72.40
2023-03-17T07:59:14.457Z,72.10
2023-03-17T08:07:19.498Z,71.90
2023-03-17T08:09:51.018Z,71.90
2023-03-17T08:12:27.097Z,71.40
2023-03-17T08:14:58.291Z,71.00
2023-03-17T08:17:28.657Z,71.00
2023-03-17T08:19:59.813Z,71.30
2023-03-17T08:22:32.351Z,71.10
2023-03-17T08:27:45.507Z,71.00
2023-03-17T08:30:15.994Z,71.50
2023-03-17T08:32:46.830Z,71.00
2023-03-17T08:35:24.723Z,70.50
2023-03-17T08:37:56.293Z,70.60
2023-03-17T08:46:01.133Z,70.30
2023-03-17T08:48:53.517Z,69.80
2023-03-17T08:51:29.103Z,69.90
2023-03-17T08:54:10.671Z,69.80
2023-03-17T08:56:58.865Z,70.00
2023-03-17T09:02:13.939Z,69.50
2023-03-17T09:04:43.722Z,69.70
2023-03-17T09:07:13.089Z,69.40
2023-03-17T09:12:49.794Z,69.20
2023-03-17T09:21:04.282Z,69.60
2023-03-17T09:23:34.728Z,69.90
2023-03-17T09:29:02.488Z,69.90
2023-03-17T09:31:35.045Z,70.10
2023-03-17T09:39:38.301Z,69.50
2023-03-17T09:42:39.344Z,69.70
2023-03-17T09:45:52.150Z,69.80
2023-03-17T09:54:41.289Z,70.10
2023-03-17T09:57:32.871Z,70.30
2023-03-17T10:00:29.311Z,70.40
2023-03-17T10:03:06.276Z,70.50
2023-03-17T10:05:37.834Z,70.50
2023-03-17T10:08:31.947Z,70.90
2023-03-17T10:11:25.192Z,70.90
2023-03-17T10:14:55.838Z,71.20
2023-03-17T10:17:46.422Z,71.30
2023-03-17T10:21:01.024Z,71.40
2023-03-17T10:23:38.390Z,71.60
2023-03-17T10:26:23.363Z,71.30
2023-03-17T10:29:08.988Z,71.50
2023-03-17T10:31:41.416Z,71.70
2023-03-17T10:34:40.709Z,71.70
2023-03-17T10:40:19.562Z,71.90
2023-03-17T10:43:15.525Z,72.80
2023-03-17T10:46:24.460Z,72.10
2023-03-17T10:49:14.082Z,73.00
2023-03-17T10:51:52.996Z,72.40
2023-03-17T10:57:16.064Z,72.80
2023-03-17T11:03:01.432Z,73.20
2023-03-17T11:09:20.936Z,73.50
2023-03-17T11:12:10.455Z,73.60
2023-03-17T11:18:00.190Z,74.10
2023-03-17T11:20:53.641Z,74.60
2023-03-17T11:23:49.930Z,74.90
2023-03-17T11:29:44.886Z,75.80
2023-03-17T11:32:44.312Z,76.20
2023-03-17T11:35:24.745Z,76.60
2023-03-17T11:45:15.492Z,77.10
2023-03-17T11:48:07.778Z,77.40
2023-03-17T11:51:00.753Z,77.60
2023-03-17T11:54:20.391Z,78.00
2023-03-17T11:57:04.829Z,77.80
2023-03-17T12:02:43.674Z,78.00
2023-03-17T12:05:26.469Z,78.20
2023-03-17T12:08:35.081Z,78.30
2023-03-17T12:11:21.707Z,78.50
2023-03-17T12:14:35.310Z,78.70
2023-03-17T12:17:20.683Z,78.80
2023-03-17T12:20:25.575Z,79.10
2023-03-17T12:23:47.348Z,79.00
2023-03-17T12:26:52.838Z,79.10
2023-03-17T12:29:42.901Z,79.40
2023-03-17T12:32:36.273Z,79.50
2023-03-17T12:35:42.766Z,79.30
2023-03-17T12:39:18.260Z,79.40
2023-03-17T12:42:32.379Z,79.40
2023-03-17T12:45:41.335Z,79.50
2023-03-17T12:49:12.447Z,79.70
2023-03-17T12:52:05.589Z,80.10
2023-03-17T12:54:50.671Z,80.30
2023-03-17T12:57:45.595Z,80.60
2023-03-17T13:00:38.063Z,80.80
2023-03-17T13:03:32.691Z,80.70
2023-03-17T13:08:57.698Z,81.70
2023-03-17T13:15:00.028Z,81.50
2023-03-17T13:17:34.110Z,81.30
2023-03-17T13:20:32.841Z,81.90
2023-03-17T13:23:28.315Z,81.90
2023-03-17T13:28:52.121Z,82.50
2023-03-17T13:41:24.106Z,83.30
2023-03-17T13:44:21.578Z,83.40
2023-03-17T13:46:59.650Z,83.40
2023-03-17T13:52:33.470Z,83.90
2023-03-17T13:58:27.375Z,83.90
2023-03-17T14:04:04.210Z,84.30
2023-03-17T14:06:52.510Z,84.40
2023-03-17T14:10:10.290Z,84.50
2023-03-17T14:16:42.761Z,84.60
2023-03-17T14:22:37.050Z,84.80
2023-03-17T14:25:12.378Z,84.90
2023-03-17T14:28:09.935Z,85.30
2023-03-17T14:31:08.068Z,85.50
2023-03-17T14:39:30.169Z,85.90
2023-03-17T14:42:10.760Z,86.00
2023-03-17T14:45:15.374Z,86.20
2023-03-17T14:47:52.652Z,86.20
2023-03-17T14:50:37.720Z,86.50
2023-03-17T14:55:58.788Z,87.20
2023-03-17T15:01:46.092Z,87.20
2023-03-17T15:04:44.578Z,87.10
2023-03-17T15:07:49.509Z,87.20
2023-03-17T15:10:42.628Z,87.20
2023-03-17T15:16:31.754Z,88.10
2023-03-17T15:22:58.833Z,88.60
2023-03-17T15:28:27.986Z,88.90
2023-03-17T15:31:18.691Z,89.20
2023-03-17T15:44:41.408Z,89.70
2023-03-17T15:47:19.227Z,89.90
2023-03-17T15:49:50.619Z,90.10
2023-03-17T15:52:26.417Z,90.30
2023-03-17T15:54:59.040Z,90.30
2023-03-17T15:57:29.011Z,90.20
2023-03-17T15:59:58.229Z,90.20
2023-03-17T16:02:38.251Z,90.30
2023-03-17T16:05:23.110Z,90.30
2023-03-17T16:07:52.492Z,90.30
2023-03-17T16:10:28.647Z,90.40
2023-03-17T16:13:03.371Z,90.50
2023-03-17T16:15:39.449Z,91.10
2023-03-17T16:18:27.539Z,90.90
2023-03-17T16:21:02.115Z,90.90
2023-03-17T16:23:36.984Z,91.30
2023-03-17T16:26:15.976Z,91.20
2023-03-17T16:28:51.787Z,92.50
2023-03-17T16:31:31.935Z,91.70
2023-03-17T16:34:01.861Z,91.40
2023-03-17T16:36:31.252Z,91.30
2023-03-17T16:39:00.993Z,91.50
2023-03-17T16:41:31.437Z,91.40
2023-03-17T16:46:50.253Z,92.20
2023-03-17T16:49:28.768Z,91.90
2023-03-17T16:52:06.283Z,91.80
2023-03-17T16:54:40.733Z,91.90
2023-03-17T16:57:17.497Z,91.90
2023-03-17T16:59:46.799Z,92.00
2023-03-17T17:02:18.155Z,92.70
2023-03-17T17:04:47.371Z,92.50
2023-03-17T17:07:16.598Z,92.60
2023-03-17T17:09:45.810Z,93.10
2023-03-17T17:12:15.132Z,92.70
2023-03-17T17:14:44.377Z,92.70
2023-03-17T17:17:16.630Z,92.90
2023-03-17T17:19:46.418Z,93.10
2023-03-17T17:22:24.826Z,92.60
2023-03-17T17:24:54.300Z,92.70
2023-03-17T17:27:30.349Z,92.00
2023-03-17T17:30:02.311Z,92.80
2023-03-17T17:35:26.134Z,93.30
2023-03-17T17:40:55.217Z,93.30
2023-03-17T17:49:07.150Z,93.90
2023-03-17T17:51:36.500Z,93.60
2023-03-17T17:54:11.770Z,93.60
2023-03-17T17:56:51.910Z,93.70
2023-03-17T17:59:33.349Z,93.80
2023-03-17T18:02:02.840Z,93.90
2023-03-17T18:10:23.585Z,94.00
2023-03-17T18:13:06.055Z,93.80
2023-03-17T18:18:17.982Z,93.80
2023-03-17T18:20:57.506Z,93.90
2023-03-17T18:23:40.788Z,94.10
2023-03-17T18:26:31.871Z,94.00
2023-03-17T18:31:55.971Z,94.10
2023-03-17T18:34:40.199Z,94.10
2023-03-17T18:40:12.014Z,94.30
2023-03-17T18:45:25.177Z,94.40
2023-03-17T18:50:52.600Z,94.50
2023-03-17T18:53:34.674Z,94.40
2023-03-17T19:04:21.322Z,94.40
2023-03-17T19:06:50.643Z,94.40
2023-03-17T19:09:20.280Z,94.50
2023-03-17T19:11:49.497Z,94.60
2023-03-17T19:14:18.746Z,94.80
2023-03-17T19:16:47.918Z,94.70
2023-03-17T19:19:17.171Z,94.80
2023-03-17T19:21:46.477Z,95.00
2023-03-17T19:24:15.995Z,94.80
2023-03-17T19:26:45.295Z,94.90
2023-03-17T19:29:15.356Z,94.90
2023-03-17T19:31:46.173Z,94.70
2023-03-17T19:34:17.380Z,95.00
2023-03-17T19:36:47.609Z,95.10
2023-03-17T19:39:17.524Z,95.00
2023-03-17T19:41:49.416Z,95.10
2023-03-17T19:44:18.577Z,95.10
2023-03-17T19:46:47.803Z,94.90
2023-03-17T19:49:17.525Z,95.00
2023-03-17T19:51:47.846Z,95.40
2023-03-17T19:54:17.860Z,95.00
2023-03-17T19:56:47.311Z,95.00
2023-03-17T19:59:16.510Z,94.90
2023-03-17T20:01:45.792Z,94.60
2023-03-17T20:04:18.507Z,94.60
2023-03-17T20:06:56.524Z,94.60
2023-03-17T20:09:28.125Z,94.70
2023-03-17T20:11:58.125Z,94.60
2023-03-17T20:14:27.394Z,94.60
2023-03-17T20:16:56.918Z,94.70
2023-03-17T20:19:27.125Z,94.80
2023-03-17T20:21:56.649Z,95.10
2023-03-17T20:24:27.913Z,95.10
2023-03-17T20:26:58.985Z,95.10
2023-03-17T20:29:29.051Z,95.20
2023-03-17T20:31:58.550Z,95.10
2023-03-17T20:34:27.928Z,95.00
2023-03-17T20:36:57.084Z,95.00
2023-03-17T20:39:26.323Z,95.00
2023-03-17T20:41:55.688Z,95.00
2023-03-17T20:44:25.345Z,95.20
2023-03-17T20:46:55.311Z,95.20
2023-03-17T20:49:24.639Z,95.30
2023-03-17T20:51:53.841Z,95.30
2023-03-17T20:54:24.243Z,95.40
2023-03-17T20:56:54.585Z,95.50
2023-03-17T20:59:25.674Z,95.10
2023-03-17T21:01:54.983Z,95.10
2023-03-17T21:04:24.177Z,95.10
2023-03-17T21:06:53.510Z,95.30
2023-03-17T21:09:22.947Z,95.10
2023-03-17T21:11:52.899Z,95.10
2023-03-17T21:14:22.374Z,95.10
2023-03-17T21:16:51.690Z,95.10
2023-03-17T21:19:20.983Z,95.20
2023-03-17T21:21:50.589Z,95.20
2023-03-17T21:24:34.706Z,95.20
2023-03-17T21:27:19.691Z,95.20
2023-03-17T21:29:55.790Z,95.30
2023-03-17T21:32:31.672Z,95.50
2023-03-17T21:35:01.997Z,95.70
2023-03-17T21:37:42.848Z,95.60
2023-03-17T21:40:16.659Z,95.70
2023-03-17T21:42:56.025Z,95.80
2023-03-17T21:45:29.464Z,95.60
2023-03-17T21:47:58.839Z,95.60
2023-03-17T21:50:33.760Z,95.60
2023-03-17T21:53:06.662Z,95.40
2023-03-17T21:55:40.336Z,95.20
2023-03-17T21:58:09.848Z,95.20
2023-03-17T22:00:45.993Z,94.80
2023-03-17T22:03:21.192Z,95.20
2023-03-17T22:05:57.384Z,95.30
2023-03-17T22:08:27.458Z,95.40
2023-03-17T22:10:56.945Z,95.60
2023-03-17T22:13:37.712Z,95.60
2023-03-17T22:16:09.306Z,95.60
2023-03-17T22:21:26.158Z,95.70
2023-03-17T22:23:55.841Z,95.80
2023-03-17T22:26:33.874Z,95.80
2023-03-17T22:29:05.227Z,95.90
2023-03-17T22:31:39.399Z,95.80
2023-03-17T22:37:01.338Z,95.70
2023-03-17T22:39:32.831Z,95.80
2023-03-17T22:47:30.745Z,96.10
2023-03-17T22:50:00.168Z,96.00
2023-03-17T22:52:39.721Z,96.00
2023-03-17T22:55:25.041Z,96.00
2023-03-17T23:06:29.256Z,96.00
2023-03-17T23:09:11.336Z,95.90
2023-03-17T23:11:41.944Z,95.90
2023-03-17T23:14:12.857Z,96.00
2023-03-17T23:16:42.781Z,96.10
2023-03-17T23:19:12.197Z,96.20
2023-03-17T23:27:14.576Z,95.80
2023-03-17T23:35:32.204Z,95.90
2023-03-17T23:38:03.446Z,96.00
2023-03-17T23:40:49.281Z,96.00
2023-03-17T23:46:19.083Z,96.20
2023-03-17T23:48:53.122Z,96.40
2023-03-17T23:51:25.983Z,96.50
2023-03-17T23:53:55.459Z,96.50
2023-03-17T23:56:27.447Z,96.40
2023-03-17T23:58:59.788Z,96.70
